createdAt,value
2023-03-25T00:01:09.277Z,9.43
2023-03-25T00:03:45.329Z,8.48
2023-03-25T00:06:22.913Z,8.90
2023-03-25T00:09:00.574Z,9.13
2023-03-25T00:11:28.970Z,9.40
2023-03-25T00:13:58.413Z,8.82
2023-03-25T00:16:28.349Z,9.27
2023-03-25T00:19:01.097Z,9.63
2023-03-25T00:21:29.422Z,9.07
2023-03-25T00:24:02.034Z,7.95
2023-03-25T00:26:30.314Z,9.68
2023-03-25T00:29:01.994Z,9.23
2023-03-25T00:31:29.324Z,10.00
2023-03-25T00:34:02.995Z,10.63
2023-03-25T00:36:30.890Z,10.20
2023-03-25T00:39:01.037Z,9.43
2023-03-25T00:41:30.814Z,10.63
2023-03-25T00:44:03.315Z,9.50
2023-03-25T00:46:34.507Z,10.50
2023-03-25T00:49:07.714Z,10.68
2023-03-25T00:51:34.766Z,10.73
2023-03-25T00:54:24.511Z,10.57
2023-03-25T00:56:53.214Z,11.57
2023-03-25T01:02:31.350Z,10.57
2023-03-25T01:05:01.757Z,10.55
2023-03-25T01:07:40.240Z,10.63
2023-03-25T01:10:12.203Z,10.68
2023-03-25T01:12:41.562Z,10.10
2023-03-25T01:15:15.479Z,10.65
2023-03-25T01:17:42.793Z,10.32
2023-03-25T01:20:13.487Z,10.07
2023-03-25T01:22:45.123Z,11.32
2023-03-25T01:25:14.722Z,10.45
2023-03-25T01:27:44.910Z,10.80
2023-03-25T01:30:22.408Z,10.43
2023-03-25T01:32:49.534Z,10.50
2023-03-25T01:35:16.809Z,11.10
2023-03-25T01:37:48.510Z,10.98
2023-03-25T01:40:23.623Z,10.68
2023-03-25T01:42:54.709Z,11.70
2023-03-25T01:45:31.043Z,12.27
2023-03-25T01:48:15.131Z,11.60
2023-03-25T01:50:53.752Z,12.40
2023-03-25T01:53:23.670Z,11.23
2023-03-25T01:55:56.213Z,11.45
2023-03-25T01:58:27.971Z,13.63
2023-03-25T02:00:58.163Z,12.55
2023-03-25T02:03:25.647Z,12.95
2023-03-25T02:06:11.300Z,13.38
2023-03-25T02:08:42.151Z,13.32
2023-03-25T02:11:13.963Z,14.15
2023-03-25T02:13:44.174Z,12.77
2023-03-25T02:16:17.431Z,13.88
2023-03-25T02:19:12.843Z,13.40
2023-03-25T02:22:18.035Z,12.20
2023-03-25T02:25:06.652Z,12.75
2023-03-25T02:27:55.527Z,13.07
2023-03-25T02:31:02.208Z,13.23
2023-03-25T02:33:58.597Z,12.98
2023-03-25T02:37:03.162Z,14.63
2023-03-25T02:39:49.319Z,15.35
2023-03-25T02:42:26.189Z,12.98
2023-03-25T02:45:23.375Z,14.02
2023-03-25T02:48:02.780Z,15.10
2023-03-25T02:50:37.205Z,14.85
2023-03-25T02:53:11.752Z,14.50
2023-03-25T02:55:43.956Z,14.60
2023-03-25T02:58:17.928Z,15.88
2023-03-25T03:00:52.275Z,13.88
2023-03-25T03:03:23.279Z,14.27
2023-03-25T03:05:55.779Z,14.30
2023-03-25T03:09:00.498Z,13.45
2023-03-25T03:11:38.029Z,14.57
2023-03-25T03:14:41.382Z,13.77
2023-03-25T03:17:18.578Z,14.18
2023-03-25T03:20:36.374Z,13.32
2023-03-25T03:23:32.914Z,13.45
2023-03-25T03:26:52.764Z,14.25
2023-03-25T03:29:54.732Z,13.55
2023-03-25T03:32:43.577Z,13.45
2023-03-25T03:35:34.934Z,13.93
2023-03-25T03:38:09.640Z,14.15
2023-03-25T03:40:44.447Z,13.52
2023-03-25T03:43:45.989Z,13.13
2023-03-25T03:46:43.156Z,13.13
2023-03-25T03:49:17.367Z,12.68
2023-03-25T03:52:17.163Z,12.90
2023-03-25T03:55:01.588Z,12.10
2023-03-25T03:57:41.493Z,13.30
2023-03-25T04:00:19.108Z,12.65
2023-03-25T04:02:56.011Z,12.98
2023-03-25T04:05:32.610Z,13.02
2023-03-25T04:08:12.116Z,13.52
2023-03-25T04:10:52.914Z,12.93
2023-03-25T04:13:22.944Z,12.63
2023-03-25T04:15:53.440Z,12.73
2023-03-25T04:18:25.124Z,13.40
2023-03-25T04:20:55.332Z,12.48
2023-03-25T04:23:25.140Z,12.48
2023-03-25T04:25:54.536Z,11.88
2023-03-25T04:28:24.181Z,12.73
2023-03-25T04:31:02.790Z,12.27
2023-03-25T04:33:32.334Z,13.25
2023-03-25T04:36:02.285Z,13.02
2023-03-25T04:38:30.078Z,13.80
2023-03-25T04:41:13.876Z,13.15
2023-03-25T04:43:47.771Z,12.77
2023-03-25T04:48:57.241Z,11.90
2023-03-25T04:51:27.331Z,13.48
2023-03-25T04:53:57.967Z,14.10
2023-03-25T04:56:28.080Z,13.15
2023-03-25T04:58:55.405Z,13.80
2023-03-25T05:01:38.584Z,14.25
2023-03-25T05:04:24.511Z,12.05
2023-03-25T05:07:03.898Z,12.82
2023-03-25T05:09:51.917Z,13.00
2023-03-25T05:12:27.984Z,12.98
2023-03-25T05:15:08.793Z,13.18
2023-03-25T05:17:54.664Z,12.38
2023-03-25T05:20:33.469Z,12.57
2023-03-25T05:23:19.871Z,12.57
2023-03-25T05:25:56.679Z,13.38
2023-03-25T05:28:38.738Z,13.98
2023-03-25T05:31:09.257Z,13.43
2023-03-25T05:33:46.141Z,11.90
2023-03-25T05:36:21.770Z,12.32
2023-03-25T05:39:06.356Z,12.48
2023-03-25T05:41:47.027Z,12.35
2023-03-25T05:44:39.978Z,12.35
2023-03-25T05:47:16.262Z,12.50
2023-03-25T05:50:16.727Z,12.05
2023-03-25T05:52:44.968Z,11.45
2023-03-25T05:55:27.866Z,12.52
2023-03-25T05:58:07.439Z,12.90
2023-03-25T06:00:50.615Z,12.18
2023-03-25T06:03:27.036Z,12.63
2023-03-25T06:06:14.244Z,12.82
2023-03-25T06:11:38.789Z,13.15
2023-03-25T06:14:17.828Z,12.00
2023-03-25T06:16:51.439Z,12.27
2023-03-25T06:19:30.435Z,12.32
2023-03-25T06:22:05.835Z,12.50
2023-03-25T06:27:28.280Z,13.48
2023-03-25T06:29:56.272Z,13.88
2023-03-25T06:32:26.709Z,13.23
2023-03-25T06:34:54.096Z,13.30
2023-03-25T06:37:22.045Z,12.70
2023-03-25T06:39:50.117Z,13.20
2023-03-25T06:42:21.421Z,13.82
2023-03-25T06:45:07.964Z,14.02
2023-03-25T06:47:52.666Z,15.02
2023-03-25T06:50:19.838Z,13.60
2023-03-25T06:52:46.973Z,13.75
2023-03-25T06:55:20.826Z,14.93
2023-03-25T06:57:48.497Z,12.68
2023-03-25T07:00:20.565Z,12.65
2023-03-25T07:02:51.276Z,13.23
2023-03-25T07:05:18.705Z,12.95
2023-03-25T07:07:45.923Z,12.23
2023-03-25T07:10:14.186Z,6.50
2023-03-25T07:12:41.551Z,5.05
2023-03-25T07:15:09.860Z,3.78
2023-03-25T07:17:44.146Z,3.33
2023-03-25T07:20:21.128Z,3.10
2023-03-25T07:22:48.626Z,2.88
2023-03-25T07:25:20.740Z,2.78
2023-03-25T07:27:52.428Z,2.15
2023-03-25T07:30:31.124Z,1.80
2023-03-25T07:32:58.401Z,2.25
2023-03-25T07:35:29.019Z,2.47
2023-03-25T07:37:56.427Z,3.42
2023-03-25T07:40:24.527Z,2.45
2023-03-25T07:42:51.925Z,2.05
2023-03-25T07:45:44.411Z,2.60
2023-03-25T07:48:15.043Z,2.72
2023-03-25T07:50:52.815Z,2.28
2023-03-25T07:53:23.328Z,2.13
2023-03-25T07:56:07.112Z,2.60
2023-03-25T07:58:35.032Z,2.72
2023-03-25T08:01:09.355Z,2.65
2023-03-25T08:03:42.234Z,3.10
2023-03-25T08:06:10.459Z,3.05
2023-03-25T08:08:44.110Z,2.63
2023-03-25T08:11:21.009Z,2.55
2023-03-25T08:14:16.423Z,2.22
2023-03-25T08:17:17.015Z,2.45
2023-03-25T08:19:59.829Z,2.42
2023-03-25T08:22:44.243Z,2.83
2023-03-25T08:25:25.063Z,2.50
2023-03-25T08:28:04.184Z,2.65
2023-03-25T08:31:02.102Z,2.80
2023-03-25T08:33:45.324Z,2.92
2023-03-25T08:36:30.835Z,3.60
2023-03-25T08:39:29.908Z,2.35
2023-03-25T08:42:33.489Z,3.50
2023-03-25T08:45:31.832Z,3.20
2023-03-25T08:48:14.207Z,2.80
2023-03-25T08:51:00.297Z,3.22
2023-03-25T08:53:37.407Z,2.90
2023-03-25T08:56:20.164Z,2.83
2023-03-25T08:59:03.412Z,3.03
2023-03-25T09:01:33.353Z,2.83
2023-03-25T09:04:13.131Z,3.40
2023-03-25T09:06:47.552Z,2.60
2023-03-25T09:09:31.782Z,3.13
2023-03-25T09:12:28.584Z,2.97
2023-03-25T09:15:08.038Z,3.72
2023-03-25T09:17:39.657Z,4.05
2023-03-25T09:20:19.351Z,3.63
2023-03-25T09:22:51.693Z,4.88
2023-03-25T09:25:33.306Z,4.15
2023-03-25T09:28:05.828Z,4.68
2023-03-25T09:31:04.489Z,5.80
2023-03-25T09:34:06.208Z,4.72
2023-03-25T09:36:39.791Z,3.90
2023-03-25T09:42:21.078Z,2.80
2023-03-25T09:45:23.054Z,3.60
2023-03-25T09:48:14.063Z,3.13
2023-03-25T09:50:51.198Z,2.85
2023-03-25T09:53:51.480Z,2.75
2023-03-25T09:56:32.389Z,3.20
2023-03-25T09:59:41.406Z,3.35
2023-03-25T10:02:57.258Z,3.42
2023-03-25T10:05:54.496Z,3.60
2023-03-25T10:08:48.518Z,2.92
2023-03-25T10:14:38.502Z,2.55
2023-03-25T10:17:30.788Z,2.97
2023-03-25T10:20:20.131Z,3.63
2023-03-25T10:23:20.846Z,3.28
2023-03-25T10:26:14.449Z,3.47
2023-03-25T10:28:58.602Z,3.50
2023-03-25T10:31:43.661Z,3.45
2023-03-25T10:34:39.873Z,2.80
2023-03-25T10:37:21.967Z,2.50
2023-03-25T10:40:43.189Z,2.38
2023-03-25T10:43:39.948Z,3.60
2023-03-25T10:46:28.199Z,3.70
2023-03-25T10:49:25.025Z,2.97
2023-03-25T10:52:21.153Z,2.00
2023-03-25T10:55:57.021Z,2.80
2023-03-25T10:58:44.146Z,2.92
2023-03-25T11:04:33.298Z,2.72
2023-03-25T11:07:45.994Z,2.80
2023-03-25T11:10:37.340Z,3.10
2023-03-25T11:13:25.749Z,2.45
2023-03-25T11:16:05.417Z,2.63
2023-03-25T11:18:48.986Z,2.67
2023-03-25T11:21:37.828Z,2.40
2023-03-25T11:24:42.426Z,2.58
2023-03-25T11:27:36.609Z,1.88
2023-03-25T11:30:29.444Z,2.55
2023-03-25T11:33:19.237Z,2.50
2023-03-25T11:36:11.742Z,1.98
2023-03-25T11:38:57.257Z,2.78
2023-03-25T11:41:42.969Z,1.95
2023-03-25T11:44:48.345Z,1.98
2023-03-25T11:47:38.550Z,2.40
2023-03-25T11:50:32.489Z,2.03
2023-03-25T11:53:17.361Z,1.70
2023-03-25T11:55:52.631Z,2.00
2023-03-25T11:58:36.319Z,2.15
2023-03-25T12:01:25.764Z,2.25
2023-03-25T12:04:05.620Z,1.92
2023-03-25T12:06:35.465Z,2.13
2023-03-25T12:09:10.694Z,1.60
2023-03-25T12:12:18.018Z,2.40
2023-03-25T12:15:07.304Z,2.72
2023-03-25T12:17:49.892Z,1.65
2023-03-25T12:20:55.331Z,2.38
2023-03-25T12:23:58.930Z,2.05
2023-03-25T12:26:51.691Z,1.83
2023-03-25T12:29:35.210Z,2.30
2023-03-25T12:32:25.006Z,1.75
2023-03-25T12:35:40.004Z,2.50
2023-03-25T12:38:25.821Z,2.80
2023-03-25T12:41:26.691Z,2.63
2023-03-25T12:47:26.092Z,2.47
2023-03-25T12:53:06.201Z,2.58
2023-03-25T12:56:11.107Z,2.63
2023-03-25T12:59:23.437Z,1.67
2023-03-25T13:02:23.408Z,2.13
2023-03-25T13:05:00.754Z,3.10
2023-03-25T13:07:38.509Z,1.77
2023-03-25T13:10:12.663Z,1.65
2023-03-25T13:12:57.435Z,1.77
2023-03-25T13:15:53.421Z,2.13
2023-03-25T13:18:47.997Z,2.17
2023-03-25T13:21:29.631Z,2.65
2023-03-25T13:24:03.281Z,2.03
2023-03-25T13:26:36.309Z,1.88
2023-03-25T13:29:28.123Z,2.38
2023-03-25T13:32:05.688Z,2.00
2023-03-25T13:34:57.524Z,1.95
2023-03-25T13:37:38.114Z,1.52
2023-03-25T13:43:17.960Z,2.22
2023-03-25T13:46:04.285Z,3.95
2023-03-25T13:49:06.886Z,1.50
2023-03-25T13:51:35.749Z,1.70
2023-03-25T13:54:14.960Z,1.60
2023-03-25T13:56:50.418Z,1.60
2023-03-25T13:59:59.302Z,2.47
2023-03-25T14:02:45.381Z,1.90
2023-03-25T14:05:44.981Z,1.98
2023-03-25T14:08:57.889Z,1.70
2023-03-25T14:11:52.880Z,1.92
2023-03-25T14:14:36.158Z,1.38
2023-03-25T14:17:08.991Z,1.33
2023-03-25T14:19:43.876Z,1.80
2023-03-25T14:22:27.755Z,1.63
2023-03-25T14:24:59.294Z,1.90
2023-03-25T14:27:37.778Z,1.98
2023-03-25T14:30:23.466Z,1.63
2023-03-25T14:32:55.304Z,1.73
2023-03-25T14:35:31.995Z,1.50
2023-03-25T14:38:08.909Z,2.05
2023-03-25T14:40:55.358Z,1.63
2023-03-25T14:43:47.921Z,1.75
2023-03-25T14:46:22.132Z,1.50
2023-03-25T14:49:12.355Z,1.90
2023-03-25T14:51:42.884Z,1.08
2023-03-25T14:54:32.290Z,1.73
2023-03-25T14:57:19.665Z,1.50
2023-03-25T14:59:52.149Z,1.33
2023-03-25T15:02:31.675Z,1.73
2023-03-25T15:05:28.003Z,1.40
2023-03-25T15:08:19.174Z,1.38
2023-03-25T15:11:05.929Z,2.30
2023-03-25T15:13:55.628Z,1.48
2023-03-25T15:16:50.750Z,1.60
2023-03-25T15:19:22.598Z,1.80
2023-03-25T15:22:11.758Z,1.45
2023-03-25T15:24:43.872Z,1.65
2023-03-25T15:27:35.612Z,1.70
2023-03-25T15:30:37.743Z,1.60
2023-03-25T15:33:41.919Z,1.15
2023-03-25T15:36:47.959Z,1.00
2023-03-25T15:39:29.736Z,1.40
2023-03-25T15:42:21.999Z,1.25
2023-03-25T15:45:23.226Z,1.17
2023-03-25T15:48:15.232Z,1.27
2023-03-25T15:51:02.892Z,1.40
2023-03-25T15:53:42.936Z,1.20
2023-03-25T15:56:37.489Z,1.10
2023-03-25T15:59:25.932Z,1.63
2023-03-25T16:01:58.066Z,2.53
2023-03-25T16:04:51.466Z,1.50
2023-03-25T16:07:26.154Z,1.35
2023-03-25T16:09:53.865Z,1.42
2023-03-25T16:12:29.999Z,1.08
2023-03-25T16:14:57.389Z,1.58
2023-03-25T16:17:33.357Z,1.52
2023-03-25T16:20:02.142Z,1.50
2023-03-25T16:22:34.597Z,1.52
2023-03-25T16:25:06.885Z,1.50
2023-03-25T16:27:33.965Z,1.50
2023-03-25T16:30:22.026Z,1.20
2023-03-25T16:32:50.079Z,1.30
2023-03-25T16:35:31.232Z,1.40
2023-03-25T16:38:02.446Z,1.90
2023-03-25T16:40:49.461Z,1.70
2023-03-25T16:43:20.921Z,1.50
2023-03-25T16:45:57.871Z,1.45
2023-03-25T16:48:32.766Z,1.23
2023-03-25T16:51:37.241Z,1.40
2023-03-25T16:54:34.168Z,1.40
2023-03-25T16:57:09.999Z,1.45
2023-03-25T16:59:39.235Z,1.75
2023-03-25T17:02:26.003Z,1.63
2023-03-25T17:05:04.709Z,1.30
2023-03-25T17:07:35.081Z,1.50
2023-03-25T17:10:03.580Z,1.75
2023-03-25T17:12:31.925Z,1.80
2023-03-25T17:15:07.335Z,1.10
2023-03-25T17:18:01.582Z,0.80
2023-03-25T17:20:38.339Z,1.20
2023-03-25T17:23:27.715Z,1.20
2023-03-25T17:26:09.673Z,1.88
2023-03-25T17:29:02.316Z,1.40
2023-03-25T17:32:03.803Z,1.55
2023-03-25T17:35:07.839Z,1.25
2023-03-25T17:37:46.126Z,1.40
2023-03-25T17:40:31.814Z,1.75
2023-03-25T17:43:20.133Z,1.42
2023-03-25T17:46:12.720Z,1.55
2023-03-25T17:48:49.276Z,1.38
2023-03-25T17:51:23.665Z,1.83
2023-03-25T17:54:02.896Z,2.10
2023-03-25T17:56:42.713Z,2.00
2023-03-25T17:59:29.396Z,2.35
2023-03-25T18:02:02.203Z,2.25
2023-03-25T18:04:42.830Z,2.13
2023-03-25T18:07:33.318Z,2.25
2023-03-25T18:10:20.507Z,2.78
2023-03-25T18:12:54.093Z,3.17
2023-03-25T18:18:07.305Z,2.15
2023-03-25T18:20:44.109Z,1.65
2023-03-25T18:23:18.733Z,2.10
2023-03-25T18:26:05.703Z,2.30
2023-03-25T18:28:45.984Z,2.15
2023-03-25T18:31:19.035Z,1.80
2023-03-25T18:33:50.525Z,3.70
2023-03-25T18:36:18.898Z,2.83
2023-03-25T18:38:46.245Z,1.70
2023-03-25T18:41:17.644Z,2.47
2023-03-25T18:43:47.786Z,2.85
2023-03-25T18:46:15.948Z,2.05
2023-03-25T18:48:43.766Z,2.20
2023-03-25T18:51:15.116Z,2.47
2023-03-25T18:53:45.301Z,1.80
2023-03-25T18:56:17.227Z,1.23
2023-03-25T18:58:47.237Z,1.40
2023-03-25T19:01:16.287Z,1.83
2023-03-25T19:03:43.670Z,1.63
2023-03-25T19:06:17.980Z,1.92
2023-03-25T19:08:47.199Z,1.90
2023-03-25T19:11:22.163Z,2.55
2023-03-25T19:14:04.478Z,3.33
2023-03-25T19:16:32.433Z,2.83
2023-03-25T19:19:01.555Z,1.98
2023-03-25T19:21:39.469Z,2.67
2023-03-25T19:24:07.399Z,2.30
2023-03-25T19:26:39.622Z,2.97
2023-03-25T19:29:09.072Z,2.90
2023-03-25T19:31:41.926Z,3.35
2023-03-25T19:34:14.830Z,2.17
2023-03-25T19:36:49.396Z,2.50
2023-03-25T19:39:24.138Z,2.30
2023-03-25T19:42:01.130Z,2.00
2023-03-25T19:44:34.824Z,2.58
2023-03-25T19:49:40.166Z,1.80
2023-03-25T19:52:08.844Z,2.38
2023-03-25T19:54:50.866Z,2.35
2023-03-25T19:57:27.876Z,1.58
2023-03-25T20:00:02.513Z,2.10
2023-03-25T20:02:48.348Z,2.50
2023-03-25T20:05:31.131Z,1.98
2023-03-25T20:08:14.400Z,2.55
2023-03-25T20:10:41.759Z,2.50
2023-03-25T20:13:10.307Z,2.47
2023-03-25T20:15:43.873Z,2.90
2023-03-25T20:18:11.339Z,2.80
2023-03-25T20:20:41.250Z,3.58
2023-03-25T20:23:09.042Z,3.08
2023-03-25T20:25:39.477Z,2.42
2023-03-25T20:28:10.024Z,2.67
2023-03-25T20:30:39.981Z,3.42
2023-03-25T20:33:11.874Z,3.20
2023-03-25T20:35:44.083Z,3.75
2023-03-25T20:38:11.857Z,3.78
2023-03-25T20:40:45.044Z,4.00
2023-03-25T20:43:16.003Z,4.60
2023-03-25T20:45:46.296Z,4.15
2023-03-25T20:48:16.890Z,4.72
2023-03-25T20:50:44.592Z,4.30
2023-03-25T20:53:18.110Z,4.15
2023-03-25T20:55:48.112Z,3.95
2023-03-25T20:58:16.183Z,4.00
2023-03-25T21:00:47.368Z,4.78
2023-03-25T21:03:21.215Z,4.57
2023-03-25T21:05:50.044Z,4.28
2023-03-25T21:08:17.746Z,5.63
2023-03-25T21:10:48.290Z,11.60
2023-03-25T21:13:20.024Z,14.07
2023-03-25T21:15:53.346Z,13.80
2023-03-25T21:20:52.959Z,10.95
2023-03-25T21:23:29.530Z,10.98
2023-03-25T21:26:03.681Z,7.93
2023-03-25T21:28:33.828Z,5.38
2023-03-25T21:31:17.338Z,6.32
2023-03-25T21:33:50.726Z,6.45
2023-03-25T21:36:29.495Z,5.93
2023-03-25T21:39:08.037Z,5.65
2023-03-25T21:41:36.594Z,5.80
2023-03-25T21:44:06.899Z,5.88
2023-03-25T21:46:34.689Z,5.35
2023-03-25T21:49:02.631Z,5.63
2023-03-25T21:51:42.716Z,4.75
2023-03-25T21:54:11.184Z,5.07
2023-03-25T21:56:40.396Z,5.30
2023-03-25T21:59:07.907Z,5.13
2023-03-25T22:01:39.113Z,5.15
2023-03-25T22:04:06.512Z,5.72
2023-03-25T22:06:35.964Z,5.00
2023-03-25T22:09:06.828Z,5.32
2023-03-25T22:11:37.877Z,5.68
2023-03-25T22:14:06.122Z,5.90
2023-03-25T22:16:33.878Z,6.13
2023-03-25T22:19:01.474Z,4.72
2023-03-25T22:21:49.961Z,5.88
2023-03-25T22:24:19.492Z,5.20
2023-03-25T22:26:46.891Z,5.10
2023-03-25T22:29:14.357Z,5.32
2023-03-25T22:31:44.463Z,5.65
2023-03-25T22:34:17.338Z,5.30
2023-03-25T22:36:51.116Z,4.53
2023-03-25T22:39:25.607Z,5.68
2023-03-25T22:41:59.251Z,5.07
2023-03-25T22:46:58.499Z,5.22
2023-03-25T22:49:28.409Z,4.75
2023-03-25T22:51:58.253Z,4.82
2023-03-25T22:54:25.948Z,4.55
2023-03-25T22:56:56.020Z,6.85
2023-03-25T22:59:23.637Z,5.53
2023-03-25T23:01:50.852Z,6.13
2023-03-25T23:04:18.103Z,6.05
2023-03-25T23:06:53.882Z,5.57
2023-03-25T23:09:42.054Z,4.78
2023-03-25T23:12:15.260Z,5.13
2023-03-25T23:14:47.711Z,5.13
2023-03-25T23:17:18.940Z,5.03
2023-03-25T23:19:47.314Z,4.90
2023-03-25T23:22:17.475Z,6.53
2023-03-25T23:24:45.007Z,5.47
2023-03-25T23:27:18.285Z,5.65
2023-03-25T23:29:45.640Z,5.25
2023-03-25T23:32:22.129Z,5.50
2023-03-25T23:34:49.653Z,5.82
2023-03-25T23:37:20.470Z,5.75
2023-03-25T23:39:49.989Z,5.68
2023-03-25T23:42:19.663Z,4.82
2023-03-25T23:44:48.800Z,5.03
2023-03-25T23:47:16.515Z,4.90
2023-03-25T23:49:44.587Z,5.57
2023-03-25T23:52:14.907Z,5.55
2023-03-25T23:54:43.210Z,6.55
2023-03-25T23:57:10.629Z,5.97
2023-03-25T23:59:44.617Z,6.57
